sensor_id;sensor_type;location;lat;lon;timestamp;P1;durP1;ratioP1;P2;durP2;ratioP2
11837;SDS011;5978;51.020;6.764;2023-05-07T00:02:21;10.40;;;8.50;;
11837;SDS011;5978;51.020;6.764;2023-05-07T00:04:47;9.57;;;8.57;;
11837;SDS011;5978;51.020;6.764;2023-05-07T00:07:13;8.63;;;7.83;;
11837;SDS011;5978;51.020;6.764;2023-05-07T00:09:39;9.87;;;8.27;;
11837;SDS011;5978;51.020;6.764;2023-05-07T00:12:05;7.73;;;7.13;;
11837;SDS011;5978;51.020;6.764;2023-05-07T00:14:31;8.90;;;8.07;;
11837;SDS011;5978;51.020;6.764;2023-05-07T00:16:56;10.60;;;7.83;;
11837;SDS011;5978;51.020;6.764;2023-05-07T00:19:22;8.00;;;7.17;;
11837;SDS011;5978;51.020;6.764;2023-05-07T00:21:47;11.93;;;8.10;;
11837;SDS011;5978;51.020;6.764;2023-05-07T00:24:13;10.03;;;8.50;;
11837;SDS011;5978;51.020;6.764;2023-05-07T00:26:38;10.50;;;8.83;;
11837;SDS011;5978;51.020;6.764;2023-05-07T00:29:04;12.70;;;8.20;;
11837;SDS011;5978;51.020;6.764;2023-05-07T00:31:29;11.43;;;8.40;;
11837;SDS011;5978;51.020;6.764;2023-05-07T00:33:55;10.17;;;9.17;;
11837;SDS011;5978;51.020;6.764;2023-05-07T00:36:20;9.87;;;9.00;;
11837;SDS011;5978;51.020;6.764;2023-05-07T00:38:46;9.30;;;8.40;;
11837;SDS011;5978;51.020;6.764;2023-05-07T00:41:12;9.53;;;8.60;;
11837;SDS011;5978;51.020;6.764;2023-05-07T00:43:37;10.83;;;9.73;;
11837;SDS011;5978;51.020;6.764;2023-05-07T00:46:03;10.00;;;8.83;;
11837;SDS011;5978;51.020;6.764;2023-05-07T00:48:28;9.47;;;8.60;;
11837;SDS011;5978;51.020;6.764;2023-05-07T00:50:55;10.37;;;9.07;;
11837;SDS011;5978;51.020;6.764;2023-05-07T00:53:21;12.50;;;8.83;;
11837;SDS011;5978;51.020;6.764;2023-05-07T00:55:47;12.10;;;8.70;;
11837;SDS011;5978;51.020;6.764;2023-05-07T00:58:13;9.40;;;8.50;;
11837;SDS011;5978;51.020;6.764;2023-05-07T01:00:39;9.93;;;8.77;;
11837;SDS011;5978;51.020;6.764;2023-05-07T01:03:05;9.60;;;8.60;;
11837;SDS011;5978;51.020;6.764;2023-05-07T01:05:31;10.70;;;9.00;;
11837;SDS011;5978;51.020;6.764;2023-05-07T01:07:56;10.33;;;9.30;;
11837;SDS011;5978;51.020;6.764;2023-05-07T01:10:22;10.60;;;9.60;;
11837;SDS011;5978;51.020;6.764;2023-05-07T01:12:49;8.10;;;7.30;;
11837;SDS011;5978;51.020;6.764;2023-05-07T01:15:16;9.27;;;8.07;;
11837;SDS011;5978;51.020;6.764;2023-05-07T01:17:42;9.70;;;8.20;;
11837;SDS011;5978;51.020;6.764;2023-05-07T01:20:08;8.83;;;7.80;;
11837;SDS011;5978;51.020;6.764;2023-05-07T01:22:35;8.70;;;7.90;;
11837;SDS011;5978;51.020;6.764;2023-05-07T01:25:03;9.40;;;8.50;;
11837;SDS011;5978;51.020;6.764;2023-05-07T01:27:30;11.53;;;8.20;;
11837;SDS011;5978;51.020;6.764;2023-05-07T01:29:55;10.67;;;8.50;;
11837;SDS011;5978;51.020;6.764;2023-05-07T01:32:25;8.67;;;7.93;;
11837;SDS011;5978;51.020;6.764;2023-05-07T01:35:00;12.17;;;8.67;;
11837;SDS011;5978;51.020;6.764;2023-05-07T01:37:27;9.40;;;8.47;;
11837;SDS011;5978;51.020;6.764;2023-05-07T01:39:53;9.33;;;8.43;;
11837;SDS011;5978;51.020;6.764;2023-05-07T01:42:19;10.33;;;8.50;;
11837;SDS011;5978;51.020;6.764;2023-05-07T01:44:45;8.57;;;7.77;;
11837;SDS011;5978;51.020;6.764;2023-05-07T01:47:11;13.00;;;7.83;;
11837;SDS011;5978;51.020;6.764;2023-05-07T01:49:38;8.57;;;7.77;;
11837;SDS011;5978;51.020;6.764;2023-05-07T01:52:04;9.40;;;8.50;;
11837;SDS011;5978;51.020;6.764;2023-05-07T01:54:30;9.27;;;8.30;;
11837;SDS011;5978;51.020;6.764;2023-05-07T01:56:56;8.77;;;7.87;;
11837;SDS011;5978;51.020;6.764;2023-05-07T01:59:22;9.97;;;9.07;;
11837;SDS011;5978;51.020;6.764;2023-05-07T02:01:47;9.93;;;9.00;;
11837;SDS011;5978;51.020;6.764;2023-05-07T02:04:13;7.80;;;7.10;;
11837;SDS011;5978;51.020;6.764;2023-05-07T02:06:38;8.27;;;7.57;;
11837;SDS011;5978;51.020;6.764;2023-05-07T02:09:04;8.67;;;7.77;;
11837;SDS011;5978;51.020;6.764;2023-05-07T02:11:30;9.67;;;8.80;;
11837;SDS011;5978;51.020;6.764;2023-05-07T02:13:55;8.00;;;7.20;;
11837;SDS011;5978;51.020;6.764;2023-05-07T02:16:21;10.00;;;9.10;;
11837;SDS011;5978;51.020;6.764;2023-05-07T02:18:48;8.30;;;7.53;;
11837;SDS011;5978;51.020;6.764;2023-05-07T02:21:13;7.97;;;7.27;;
11837;SDS011;5978;51.020;6.764;2023-05-07T02:23:39;8.93;;;8.03;;
11837;SDS011;5978;51.020;6.764;2023-05-07T02:26:05;8.97;;;8.17;;
11837;SDS011;5978;51.020;6.764;2023-05-07T02:28:30;9.17;;;8.27;;
11837;SDS011;5978;51.020;6.764;2023-05-07T02:30:56;11.07;;;9.67;;
11837;SDS011;5978;51.020;6.764;2023-05-07T02:33:23;9.83;;;8.47;;
11837;SDS011;5978;51.020;6.764;2023-05-07T02:35:49;8.20;;;7.40;;
11837;SDS011;5978;51.020;6.764;2023-05-07T02:38:14;8.43;;;7.70;;
11837;SDS011;5978;51.020;6.764;2023-05-07T02:40:40;9.63;;;8.17;;
11837;SDS011;5978;51.020;6.764;2023-05-07T02:43:05;9.80;;;9.00;;
11837;SDS011;5978;51.020;6.764;2023-05-07T02:45:32;9.33;;;8.43;;
11837;SDS011;5978;51.020;6.764;2023-05-07T02:47:58;9.70;;;8.73;;
11837;SDS011;5978;51.020;6.764;2023-05-07T02:50:23;9.70;;;8.80;;
11837;SDS011;5978;51.020;6.764;2023-05-07T02:52:50;10.70;;;9.70;;
11837;SDS011;5978;51.020;6.764;2023-05-07T02:55:15;10.50;;;8.60;;
11837;SDS011;5978;51.020;6.764;2023-05-07T02:57:41;10.50;;;9.20;;
11837;SDS011;5978;51.020;6.764;2023-05-07T03:00:13;9.60;;;8.70;;
11837;SDS011;5978;51.020;6.764;2023-05-07T03:02:40;10.30;;;9.27;;
11837;SDS011;5978;51.020;6.764;2023-05-07T03:05:06;9.87;;;8.87;;
11837;SDS011;5978;51.020;6.764;2023-05-07T03:07:32;9.23;;;8.33;;
11837;SDS011;5978;51.020;6.764;2023-05-07T03:09:57;9.17;;;8.30;;
11837;SDS011;5978;51.020;6.764;2023-05-07T03:12:23;9.50;;;7.90;;
11837;SDS011;5978;51.020;6.764;2023-05-07T03:14:48;9.70;;;8.70;;
11837;SDS011;5978;51.020;6.764;2023-05-07T03:17:14;9.50;;;7.90;;
11837;SDS011;5978;51.020;6.764;2023-05-07T03:19:41;9.80;;;7.53;;
11837;SDS011;5978;51.020;6.764;2023-05-07T03:22:06;11.53;;;8.40;;
11837;SDS011;5978;51.020;6.764;2023-05-07T03:24:32;9.53;;;8.57;;
11837;SDS011;5978;51.020;6.764;2023-05-07T03:26:57;9.63;;;8.03;;
11837;SDS011;5978;51.020;6.764;2023-05-07T03:29:23;9.07;;;8.00;;
11837;SDS011;5978;51.020;6.764;2023-05-07T03:31:48;9.10;;;8.30;;
11837;SDS011;5978;51.020;6.764;2023-05-07T03:34:14;7.57;;;6.97;;
11837;SDS011;5978;51.020;6.764;2023-05-07T03:36:41;8.23;;;7.53;;
11837;SDS011;5978;51.020;6.764;2023-05-07T03:39:07;7.37;;;6.67;;
11837;SDS011;5978;51.020;6.764;2023-05-07T03:41:33;8.30;;;7.50;;
11837;SDS011;5978;51.020;6.764;2023-05-07T03:43:58;6.77;;;6.20;;
11837;SDS011;5978;51.020;6.764;2023-05-07T03:46:24;7.57;;;6.87;;
11837;SDS011;5978;51.020;6.764;2023-05-07T03:48:51;8.33;;;6.73;;
11837;SDS011;5978;51.020;6.764;2023-05-07T03:51:16;7.90;;;6.90;;
11837;SDS011;5978;51.020;6.764;2023-05-07T03:53:42;8.80;;;6.70;;
11837;SDS011;5978;51.020;6.764;2023-05-07T03:56:07;8.80;;;7.90;;
11837;SDS011;5978;51.020;6.764;2023-05-07T03:58:33;8.60;;;7.80;;
11837;SDS011;5978;51.020;6.764;2023-05-07T04:00:59;8.07;;;6.87;;
11837;SDS011;5978;51.020;6.764;2023-05-07T04:03:25;7.00;;;6.10;;
11837;SDS011;5978;51.020;6.764;2023-05-07T04:05:50;8.40;;;7.57;;
11837;SDS011;5978;51.020;6.764;2023-05-07T04:08:16;12.60;;;7.80;;
11837;SDS011;5978;51.020;6.764;2023-05-07T04:10:41;9.87;;;8.43;;
11837;SDS011;5978;51.020;6.764;2023-05-07T04:13:07;8.90;;;7.00;;
11837;SDS011;5978;51.020;6.764;2023-05-07T04:15:32;8.93;;;8.13;;
11837;SDS011;5978;51.020;6.764;2023-05-07T04:17:58;7.80;;;7.10;;
11837;SDS011;5978;51.020;6.764;2023-05-07T04:20:23;8.93;;;7.57;;
11837;SDS011;5978;51.020;6.764;2023-05-07T04:22:49;8.20;;;7.50;;
11837;SDS011;5978;51.020;6.764;2023-05-07T04:25:15;9.37;;;8.47;;
11837;SDS011;5978;51.020;6.764;2023-05-07T04:27:41;9.40;;;7.80;;
11837;SDS011;5978;51.020;6.764;2023-05-07T04:30:07;7.93;;;7.20;;
11837;SDS011;5978;51.020;6.764;2023-05-07T04:32:32;13.30;;;7.17;;
11837;SDS011;5978;51.020;6.764;2023-05-07T04:34:58;9.77;;;7.40;;
11837;SDS011;5978;51.020;6.764;2023-05-07T04:37:25;9.73;;;8.40;;
11837;SDS011;5978;51.020;6.764;2023-05-07T04:39:51;9.60;;;7.73;;
11837;SDS011;5978;51.020;6.764;2023-05-07T04:42:17;8.03;;;7.13;;
11837;SDS011;5978;51.020;6.764;2023-05-07T04:44:43;11.17;;;8.07;;
11837;SDS011;5978;51.020;6.764;2023-05-07T04:47:10;10.07;;;7.70;;
11837;SDS011;5978;51.020;6.764;2023-05-07T04:49:36;9.00;;;8.10;;
11837;SDS011;5978;51.020;6.764;2023-05-07T04:52:02;9.03;;;8.23;;
11837;SDS011;5978;51.020;6.764;2023-05-07T04:54:28;9.23;;;7.90;;
11837;SDS011;5978;51.020;6.764;2023-05-07T04:56:54;8.33;;;7.63;;
11837;SDS011;5978;51.020;6.764;2023-05-07T04:59:20;8.60;;;7.50;;
11837;SDS011;5978;51.020;6.764;2023-05-07T05:01:46;9.43;;;8.43;;
11837;SDS011;5978;51.020;6.764;2023-05-07T05:04:11;10.17;;;8.63;;
11837;SDS011;5978;51.020;6.764;2023-05-07T05:06:37;10.40;;;8.33;;
11837;SDS011;5978;51.020;6.764;2023-05-07T05:09:03;9.23;;;6.57;;
11837;SDS011;5978;51.020;6.764;2023-05-07T05:11:29;8.30;;;7.60;;
11837;SDS011;5978;51.020;6.764;2023-05-07T05:13:55;8.47;;;7.60;;
11837;SDS011;5978;51.020;6.764;2023-05-07T05:16:21;12.93;;;8.00;;
11837;SDS011;5978;51.020;6.764;2023-05-07T05:18:47;6.33;;;5.73;;
11837;SDS011;5978;51.020;6.764;2023-05-07T05:21:12;6.73;;;6.03;;
11837;SDS011;5978;51.020;6.764;2023-05-07T05:23:38;7.40;;;6.70;;
11837;SDS011;5978;51.020;6.764;2023-05-07T05:26:04;6.07;;;5.57;;
11837;SDS011;5978;51.020;6.764;2023-05-07T05:28:29;7.00;;;5.60;;
11837;SDS011;5978;51.020;6.764;2023-05-07T05:30:55;6.27;;;5.63;;
11837;SDS011;5978;51.020;6.764;2023-05-07T05:33:21;6.43;;;5.90;;
11837;SDS011;5978;51.020;6.764;2023-05-07T05:35:46;5.57;;;5.07;;
11837;SDS011;5978;51.020;6.764;2023-05-07T05:38:12;5.70;;;5.10;;
11837;SDS011;5978;51.020;6.764;2023-05-07T05:40:38;8.73;;;5.70;;
11837;SDS011;5978;51.020;6.764;2023-05-07T05:43:03;6.67;;;5.40;;
11837;SDS011;5978;51.020;6.764;2023-05-07T05:45:29;6.27;;;5.70;;
11837;SDS011;5978;51.020;6.764;2023-05-07T05:47:55;6.33;;;5.73;;
11837;SDS011;5978;51.020;6.764;2023-05-07T05:50:21;6.53;;;5.93;;
11837;SDS011;5978;51.020;6.764;2023-05-07T05:52:47;7.37;;;6.60;;
11837;SDS011;5978;51.020;6.764;2023-05-07T05:55:13;5.97;;;5.47;;
11837;SDS011;5978;51.020;6.764;2023-05-07T05:57:38;6.97;;;6.27;;
11837;SDS011;5978;51.020;6.764;2023-05-07T06:00:05;6.37;;;5.40;;
11837;SDS011;5978;51.020;6.764;2023-05-07T06:02:31;6.43;;;5.93;;
11837;SDS011;5978;51.020;6.764;2023-05-07T06:04:57;8.03;;;6.07;;
11837;SDS011;5978;51.020;6.764;2023-05-07T06:07:22;5.80;;;5.30;;
11837;SDS011;5978;51.020;6.764;2023-05-07T06:09:48;6.10;;;4.90;;
11837;SDS011;5978;51.020;6.764;2023-05-07T06:12:13;5.50;;;5.00;;
11837;SDS011;5978;51.020;6.764;2023-05-07T06:14:39;5.53;;;5.03;;
11837;SDS011;5978;51.020;6.764;2023-05-07T06:17:05;5.63;;;4.93;;
11837;SDS011;5978;51.020;6.764;2023-05-07T06:19:31;6.10;;;5.37;;
11837;SDS011;5978;51.020;6.764;2023-05-07T06:21:57;5.73;;;5.20;;
11837;SDS011;5978;51.020;6.764;2023-05-07T06:24:24;5.77;;;5.30;;
11837;SDS011;5978;51.020;6.764;2023-05-07T06:26:49;8.00;;;5.10;;
11837;SDS011;5978;51.020;6.764;2023-05-07T06:29:15;5.83;;;5.23;;
11837;SDS011;5978;51.020;6.764;2023-05-07T06:31:40;5.40;;;5.00;;
11837;SDS011;5978;51.020;6.764;2023-05-07T06:34:06;5.50;;;4.97;;
11837;SDS011;5978;51.020;6.764;2023-05-07T06:36:32;5.73;;;5.00;;
11837;SDS011;5978;51.020;6.764;2023-05-07T06:38:57;12.03;;;5.10;;
11837;SDS011;5978;51.020;6.764;2023-05-07T06:41:23;4.97;;;4.53;;
11837;SDS011;5978;51.020;6.764;2023-05-07T06:43:48;10.20;;;5.87;;
11837;SDS011;5978;51.020;6.764;2023-05-07T06:46:14;6.30;;;5.27;;
11837;SDS011;5978;51.020;6.764;2023-05-07T06:48:40;5.50;;;4.97;;
11837;SDS011;5978;51.020;6.764;2023-05-07T06:51:06;7.87;;;5.07;;
11837;SDS011;5978;51.020;6.764;2023-05-07T06:53:31;4.90;;;4.57;;
11837;SDS011;5978;51.020;6.764;2023-05-07T06:55:57;5.07;;;4.67;;
11837;SDS011;5978;51.020;6.764;2023-05-07T06:58:22;5.50;;;5.00;;
11837;SDS011;5978;51.020;6.764;2023-05-07T07:00:48;5.20;;;4.80;;
11837;SDS011;5978;51.020;6.764;2023-05-07T07:03:13;6.00;;;5.17;;
11837;SDS011;5978;51.020;6.764;2023-05-07T07:05:42;4.27;;;3.83;;
11837;SDS011;5978;51.020;6.764;2023-05-07T07:08:07;5.43;;;3.93;;
11837;SDS011;5978;51.020;6.764;2023-05-07T07:10:33;4.47;;;4.10;;
11837;SDS011;5978;51.020;6.764;2023-05-07T07:12:58;5.13;;;4.73;;
11837;SDS011;5978;51.020;6.764;2023-05-07T07:15:24;5.60;;;4.73;;
11837;SDS011;5978;51.020;6.764;2023-05-07T07:17:50;5.13;;;4.70;;
11837;SDS011;5978;51.020;6.764;2023-05-07T07:20:16;5.07;;;4.43;;
11837;SDS011;5978;51.020;6.764;2023-05-07T07:22:42;5.93;;;4.50;;
11837;SDS011;5978;51.020;6.764;2023-05-07T07:25:07;4.40;;;3.60;;
11837;SDS011;5978;51.020;6.764;2023-05-07T07:27:33;10.00;;;4.13;;
11837;SDS011;5978;51.020;6.764;2023-05-07T07:29:59;4.10;;;3.80;;
11837;SDS011;5978;51.020;6.764;2023-05-07T07:32:25;3.83;;;3.53;;
11837;SDS011;5978;51.020;6.764;2023-05-07T07:34:50;9.67;;;3.87;;
11837;SDS011;5978;51.020;6.764;2023-05-07T07:37:16;4.90;;;3.60;;
11837;SDS011;5978;51.020;6.764;2023-05-07T07:39:42;3.90;;;3.27;;
11837;SDS011;5978;51.020;6.764;2023-05-07T07:42:07;3.30;;;3.00;;
11837;SDS011;5978;51.020;6.764;2023-05-07T07:44:33;3.27;;;2.97;;
11837;SDS011;5978;51.020;6.764;2023-05-07T07:46:59;2.80;;;2.57;;
11837;SDS011;5978;51.020;6.764;2023-05-07T07:49:24;2.70;;;2.33;;
11837;SDS011;5978;51.020;6.764;2023-05-07T07:51:50;3.03;;;2.70;;
11837;SDS011;5978;51.020;6.764;2023-05-07T07:54:16;2.47;;;2.27;;
11837;SDS011;5978;51.020;6.764;2023-05-07T07:56:41;2.87;;;2.37;;
11837;SDS011;5978;51.020;6.764;2023-05-07T07:59:07;2.60;;;2.40;;
11837;SDS011;5978;51.020;6.764;2023-05-07T08:01:32;2.77;;;2.53;;
11837;SDS011;5978;51.020;6.764;2023-05-07T08:03:58;2.90;;;2.70;;
11837;SDS011;5978;51.020;6.764;2023-05-07T08:06:24;4.37;;;3.67;;
11837;SDS011;5978;51.020;6.764;2023-05-07T08:08:50;3.80;;;2.90;;
11837;SDS011;5978;51.020;6.764;2023-05-07T08:11:16;3.07;;;2.87;;
11837;SDS011;5978;51.020;6.764;2023-05-07T08:13:42;2.73;;;2.53;;
11837;SDS011;5978;51.020;6.764;2023-05-07T08:16:08;3.17;;;2.97;;
11837;SDS011;5978;51.020;6.764;2023-05-07T08:18:33;2.57;;;2.37;;
11837;SDS011;5978;51.020;6.764;2023-05-07T08:20:59;2.63;;;2.43;;
11837;SDS011;5978;51.020;6.764;2023-05-07T08:23:26;3.30;;;2.63;;
11837;SDS011;5978;51.020;6.764;2023-05-07T08:25:51;2.63;;;2.43;;
11837;SDS011;5978;51.020;6.764;2023-05-07T08:28:17;4.20;;;3.10;;
11837;SDS011;5978;51.020;6.764;2023-05-07T08:30:44;3.93;;;3.00;;
11837;SDS011;5978;51.020;6.764;2023-05-07T08:33:10;2.90;;;2.57;;
11837;SDS011;5978;51.020;6.764;2023-05-07T08:35:35;2.93;;;2.73;;
11837;SDS011;5978;51.020;6.764;2023-05-07T08:38:01;3.73;;;2.60;;
11837;SDS011;5978;51.020;6.764;2023-05-07T08:40:26;4.10;;;2.30;;
11837;SDS011;5978;51.020;6.764;2023-05-07T08:42:53;2.80;;;2.60;;
11837;SDS011;5978;51.020;6.764;2023-05-07T08:45:19;2.90;;;2.60;;
11837;SDS011;5978;51.020;6.764;2023-05-07T08:47:50;2.53;;;2.33;;
11837;SDS011;5978;51.020;6.764;2023-05-07T08:50:20;3.00;;;2.80;;
11837;SDS011;5978;51.020;6.764;2023-05-07T08:52:46;2.10;;;2.00;;
11837;SDS011;5978;51.020;6.764;2023-05-07T08:55:12;4.37;;;2.57;;
11837;SDS011;5978;51.020;6.764;2023-05-07T08:57:38;4.03;;;2.60;;
11837;SDS011;5978;51.020;6.764;2023-05-07T09:00:04;2.80;;;2.60;;
11837;SDS011;5978;51.020;6.764;2023-05-07T09:02:32;2.87;;;2.67;;
11837;SDS011;5978;51.020;6.764;2023-05-07T09:04:58;2.80;;;2.60;;
11837;SDS011;5978;51.020;6.764;2023-05-07T09:07:23;3.80;;;2.73;;
11837;SDS011;5978;51.020;6.764;2023-05-07T09:09:50;3.27;;;2.97;;
11837;SDS011;5978;51.020;6.764;2023-05-07T09:12:17;5.30;;;3.40;;
11837;SDS011;5978;51.020;6.764;2023-05-07T09:14:43;6.60;;;2.77;;
11837;SDS011;5978;51.020;6.764;2023-05-07T09:17:08;2.30;;;2.10;;
11837;SDS011;5978;51.020;6.764;2023-05-07T09:19:34;2.83;;;2.40;;
11837;SDS011;5978;51.020;6.764;2023-05-07T09:22:03;3.77;;;2.50;;
11837;SDS011;5978;51.020;6.764;2023-05-07T09:24:30;2.33;;;2.13;;
11837;SDS011;5978;51.020;6.764;2023-05-07T09:27:00;2.90;;;2.00;;
11837;SDS011;5978;51.020;6.764;2023-05-07T09:29:27;3.60;;;2.20;;
11837;SDS011;5978;51.020;6.764;2023-05-07T09:32:00;2.80;;;2.60;;
11837;SDS011;5978;51.020;6.764;2023-05-07T09:34:28;3.60;;;2.20;;
11837;SDS011;5978;51.020;6.764;2023-05-07T09:36:54;2.43;;;2.23;;
11837;SDS011;5978;51.020;6.764;2023-05-07T09:39:21;3.13;;;2.30;;
11837;SDS011;5978;51.020;6.764;2023-05-07T09:41:48;3.67;;;2.67;;
11837;SDS011;5978;51.020;6.764;2023-05-07T09:44:15;3.07;;;2.57;;
11837;SDS011;5978;51.020;6.764;2023-05-07T09:46:44;2.70;;;2.47;;
11837;SDS011;5978;51.020;6.764;2023-05-07T09:49:22;2.57;;;2.40;;
11837;SDS011;5978;51.020;6.764;2023-05-07T09:51:50;2.80;;;2.20;;
11837;SDS011;5978;51.020;6.764;2023-05-07T09:54:17;2.77;;;2.47;;
11837;SDS011;5978;51.020;6.764;2023-05-07T09:56:43;3.00;;;2.10;;
11837;SDS011;5978;51.020;6.764;2023-05-07T09:59:13;2.93;;;2.73;;
11837;SDS011;5978;51.020;6.764;2023-05-07T10:01:41;4.60;;;2.80;;
11837;SDS011;5978;51.020;6.764;2023-05-07T10:04:08;2.03;;;1.93;;
11837;SDS011;5978;51.020;6.764;2023-05-07T10:06:35;3.13;;;2.10;;
11837;SDS011;5978;51.020;6.764;2023-05-07T10:09:02;2.40;;;2.20;;
11837;SDS011;5978;51.020;6.764;2023-05-07T10:11:30;2.77;;;2.57;;
11837;SDS011;5978;51.020;6.764;2023-05-07T10:14:00;2.20;;;2.10;;
11837;SDS011;5978;51.020;6.764;2023-05-07T10:16:27;2.40;;;2.17;;
11837;SDS011;5978;51.020;6.764;2023-05-07T10:18:57;2.47;;;2.27;;
11837;SDS011;5978;51.020;6.764;2023-05-07T10:21:24;6.00;;;2.70;;
11837;SDS011;5978;51.020;6.764;2023-05-07T10:23:58;3.10;;;2.53;;
11837;SDS011;5978;51.020;6.764;2023-05-07T10:26:28;3.20;;;2.20;;
11837;SDS011;5978;51.020;6.764;2023-05-07T10:28:58;2.57;;;2.17;;
11837;SDS011;5978;51.020;6.764;2023-05-07T10:34:13;2.57;;;1.60;;
11837;SDS011;5978;51.020;6.764;2023-05-07T10:36:45;2.13;;;1.90;;
11837;SDS011;5978;51.020;6.764;2023-05-07T10:39:11;2.53;;;1.90;;
11837;SDS011;5978;51.020;6.764;2023-05-07T10:41:38;2.50;;;2.03;;
11837;SDS011;5978;51.020;6.764;2023-05-07T10:44:04;2.30;;;1.73;;
11837;SDS011;5978;51.020;6.764;2023-05-07T10:46:30;2.53;;;2.20;;
11837;SDS011;5978;51.020;6.764;2023-05-07T10:51:26;2.70;;;1.90;;
11837;SDS011;5978;51.020;6.764;2023-05-07T10:56:43;4.33;;;2.00;;
11837;SDS011;5978;51.020;6.764;2023-05-07T11:01:55;2.17;;;2.00;;
11837;SDS011;5978;51.020;6.764;2023-05-07T11:04:23;2.50;;;1.73;;
11837;SDS011;5978;51.020;6.764;2023-05-07T11:12:15;2.73;;;2.30;;
11837;SDS011;5978;51.020;6.764;2023-05-07T11:17:08;2.20;;;2.00;;
11837;SDS011;5978;51.020;6.764;2023-05-07T11:19:50;2.23;;;2.03;;
11837;SDS011;5978;51.020;6.764;2023-05-07T11:22:38;2.30;;;2.10;;
11837;SDS011;5978;51.020;6.764;2023-05-07T11:25:05;2.27;;;2.07;;
11837;SDS011;5978;51.020;6.764;2023-05-07T11:27:32;2.13;;;1.93;;
11837;SDS011;5978;51.020;6.764;2023-05-07T11:29:58;2.10;;;2.00;;
11837;SDS011;5978;51.020;6.764;2023-05-07T11:32:27;2.30;;;1.60;;
11837;SDS011;5978;51.020;6.764;2023-05-07T11:34:54;2.10;;;2.00;;
11837;SDS011;5978;51.020;6.764;2023-05-07T11:37:22;2.17;;;2.07;;
11837;SDS011;5978;51.020;6.764;2023-05-07T11:39:48;3.87;;;2.53;;
11837;SDS011;5978;51.020;6.764;2023-05-07T11:42:29;3.20;;;2.00;;
11837;SDS011;5978;51.020;6.764;2023-05-07T11:44:57;3.17;;;2.20;;
11837;SDS011;5978;51.020;6.764;2023-05-07T11:47:22;2.70;;;2.30;;
11837;SDS011;5978;51.020;6.764;2023-05-07T11:49:50;3.13;;;1.67;;
11837;SDS011;5978;51.020;6.764;2023-05-07T11:52:17;2.33;;;2.13;;
11837;SDS011;5978;51.020;6.764;2023-05-07T11:54:51;2.57;;;1.90;;
11837;SDS011;5978;51.020;6.764;2023-05-07T11:57:21;2.20;;;1.70;;
11837;SDS011;5978;51.020;6.764;2023-05-07T11:59:49;2.03;;;1.83;;
11837;SDS011;5978;51.020;6.764;2023-05-07T12:02:21;2.13;;;1.73;;
11837;SDS011;5978;51.020;6.764;2023-05-07T12:04:47;2.13;;;1.80;;
11837;SDS011;5978;51.020;6.764;2023-05-07T12:07:13;3.37;;;1.93;;
11837;SDS011;5978;51.020;6.764;2023-05-07T12:09:40;3.17;;;2.87;;
11837;SDS011;5978;51.020;6.764;2023-05-07T12:12:07;2.17;;;1.70;;
11837;SDS011;5978;51.020;6.764;2023-05-07T12:14:32;2.47;;;2.17;;
11837;SDS011;5978;51.020;6.764;2023-05-07T12:17:02;2.20;;;2.00;;
11837;SDS011;5978;51.020;6.764;2023-05-07T12:19:30;3.00;;;2.20;;
11837;SDS011;5978;51.020;6.764;2023-05-07T12:21:56;3.30;;;2.60;;
11837;SDS011;5978;51.020;6.764;2023-05-07T12:24:22;2.50;;;2.30;;
11837;SDS011;5978;51.020;6.764;2023-05-07T12:26:48;4.90;;;2.47;;
11837;SDS011;5978;51.020;6.764;2023-05-07T12:29:14;2.10;;;1.90;;
11837;SDS011;5978;51.020;6.764;2023-05-07T12:31:40;2.50;;;2.30;;
11837;SDS011;5978;51.020;6.764;2023-05-07T12:34:07;2.20;;;1.90;;
11837;SDS011;5978;51.020;6.764;2023-05-07T12:36:39;4.10;;;2.50;;
11837;SDS011;5978;51.020;6.764;2023-05-07T12:39:06;3.90;;;2.63;;
11837;SDS011;5978;51.020;6.764;2023-05-07T12:41:52;2.43;;;2.23;;
11837;SDS011;5978;51.020;6.764;2023-05-07T12:44:23;2.00;;;1.80;;
11837;SDS011;5978;51.020;6.764;2023-05-07T12:46:50;2.37;;;2.17;;
11837;SDS011;5978;51.020;6.764;2023-05-07T12:49:16;2.37;;;2.17;;
11837;SDS011;5978;51.020;6.764;2023-05-07T12:51:43;2.20;;;2.00;;
11837;SDS011;5978;51.020;6.764;2023-05-07T12:54:09;2.80;;;2.60;;
11837;SDS011;5978;51.020;6.764;2023-05-07T12:56:38;3.30;;;2.37;;
11837;SDS011;5978;51.020;6.764;2023-05-07T12:59:04;2.37;;;2.17;;
11837;SDS011;5978;51.020;6.764;2023-05-07T13:01:30;2.60;;;2.40;;
11837;SDS011;5978;51.020;6.764;2023-05-07T13:04:02;2.83;;;2.53;;
11837;SDS011;5978;51.020;6.764;2023-05-07T13:06:29;2.73;;;2.50;;
11837;SDS011;5978;51.020;6.764;2023-05-07T13:08:56;2.30;;;2.10;;
11837;SDS011;5978;51.020;6.764;2023-05-07T13:11:21;2.37;;;2.17;;
11837;SDS011;5978;51.020;6.764;2023-05-07T13:13:48;2.70;;;2.40;;
11837;SDS011;5978;51.020;6.764;2023-05-07T13:16:13;3.00;;;2.10;;
11837;SDS011;5978;51.020;6.764;2023-05-07T13:18:39;6.60;;;3.27;;
11837;SDS011;5978;51.020;6.764;2023-05-07T13:21:05;4.37;;;2.80;;
11837;SDS011;5978;51.020;6.764;2023-05-07T13:23:31;3.03;;;2.80;;
11837;SDS011;5978;51.020;6.764;2023-05-07T13:25:57;5.00;;;2.60;;
11837;SDS011;5978;51.020;6.764;2023-05-07T13:28:23;3.30;;;2.20;;
11837;SDS011;5978;51.020;6.764;2023-05-07T13:30:49;2.83;;;2.40;;
11837;SDS011;5978;51.020;6.764;2023-05-07T13:33:16;4.03;;;2.50;;
11837;SDS011;5978;51.020;6.764;2023-05-07T13:35:43;2.77;;;2.53;;
11837;SDS011;5978;51.020;6.764;2023-05-07T13:38:09;2.40;;;2.30;;
11837;SDS011;5978;51.020;6.764;2023-05-07T13:40:35;3.00;;;2.80;;
11837;SDS011;5978;51.020;6.764;2023-05-07T13:43:00;2.73;;;2.30;;
11837;SDS011;5978;51.020;6.764;2023-05-07T13:45:29;3.23;;;2.50;;
11837;SDS011;5978;51.020;6.764;2023-05-07T13:47:55;4.03;;;2.63;;
11837;SDS011;5978;51.020;6.764;2023-05-07T13:50:21;2.57;;;2.37;;
11837;SDS011;5978;51.020;6.764;2023-05-07T13:52:47;3.27;;;2.43;;
11837;SDS011;5978;51.020;6.764;2023-05-07T13:55:16;6.97;;;2.90;;
11837;SDS011;5978;51.020;6.764;2023-05-07T13:57:46;9.97;;;3.40;;
11837;SDS011;5978;51.020;6.764;2023-05-07T14:00:12;5.10;;;2.83;;
11837;SDS011;5978;51.020;6.764;2023-05-07T14:02:38;7.27;;;3.30;;
11837;SDS011;5978;51.020;6.764;2023-05-07T14:05:05;4.00;;;3.63;;
11837;SDS011;5978;51.020;6.764;2023-05-07T14:07:31;9.07;;;3.77;;
11837;SDS011;5978;51.020;6.764;2023-05-07T14:09:57;9.00;;;4.40;;
11837;SDS011;5978;51.020;6.764;2023-05-07T14:12:22;5.43;;;4.93;;
11837;SDS011;5978;51.020;6.764;2023-05-07T14:14:48;5.27;;;4.23;;
11837;SDS011;5978;51.020;6.764;2023-05-07T14:17:15;5.10;;;4.70;;
11837;SDS011;5978;51.020;6.764;2023-05-07T14:19:41;7.60;;;4.80;;
11837;SDS011;5978;51.020;6.764;2023-05-07T14:22:07;6.77;;;6.07;;
11837;SDS011;5978;51.020;6.764;2023-05-07T14:24:33;11.03;;;5.77;;
11837;SDS011;5978;51.020;6.764;2023-05-07T14:26:58;5.20;;;4.80;;
11837;SDS011;5978;51.020;6.764;2023-05-07T14:29:24;4.30;;;3.90;;
11837;SDS011;5978;51.020;6.764;2023-05-07T14:31:50;2.50;;;2.30;;
11837;SDS011;5978;51.020;6.764;2023-05-07T14:34:15;1.93;;;1.73;;
11837;SDS011;5978;51.020;6.764;2023-05-07T14:36:41;2.37;;;1.57;;
11837;SDS011;5978;51.020;6.764;2023-05-07T14:39:06;1.73;;;1.57;;
11837;SDS011;5978;51.020;6.764;2023-05-07T14:41:32;5.17;;;1.87;;
11837;SDS011;5978;51.020;6.764;2023-05-07T14:43:58;2.13;;;1.60;;
11837;SDS011;5978;51.020;6.764;2023-05-07T14:46:24;2.13;;;1.93;;
11837;SDS011;5978;51.020;6.764;2023-05-07T14:48:50;3.93;;;2.80;;
11837;SDS011;5978;51.020;6.764;2023-05-07T14:51:16;3.40;;;2.80;;
11837;SDS011;5978;51.020;6.764;2023-05-07T14:53:41;3.43;;;2.40;;
11837;SDS011;5978;51.020;6.764;2023-05-07T14:56:07;6.37;;;3.43;;
11837;SDS011;5978;51.020;6.764;2023-05-07T14:58:33;3.67;;;3.37;;
11837;SDS011;5978;51.020;6.764;2023-05-07T15:00:59;3.53;;;3.23;;
11837;SDS011;5978;51.020;6.764;2023-05-07T15:03:26;4.27;;;3.27;;
11837;SDS011;5978;51.020;6.764;2023-05-07T15:05:52;4.70;;;4.30;;
11837;SDS011;5978;51.020;6.764;2023-05-07T15:08:17;3.83;;;3.43;;
11837;SDS011;5978;51.020;6.764;2023-05-07T15:10:43;4.17;;;3.87;;
11837;SDS011;5978;51.020;6.764;2023-05-07T15:13:10;3.60;;;3.30;;
11837;SDS011;5978;51.020;6.764;2023-05-07T15:15:37;4.67;;;3.57;;